createdAt,value
2022-10-17T00:01:37.205Z,99.70
2022-10-17T00:04:05.188Z,95.35
2022-10-17T00:06:33.031Z,83.20
2022-10-17T00:09:04.511Z,88.57
2022-10-17T00:11:32.373Z,81.80
2022-10-17T00:14:00.324Z,90.50
2022-10-17T00:16:34.364Z,79.60
2022-10-17T00:19:02.617Z,82.57
2022-10-17T00:21:30.881Z,85.20
2022-10-17T00:24:01.245Z,83.97
2022-10-17T00:26:29.960Z,91.50
2022-10-17T00:28:59.451Z,88.30
2022-10-17T00:31:27.595Z,89.30
2022-10-17T00:33:55.431Z,80.00
2022-10-17T00:36:25.815Z,85.60
2022-10-17T00:41:30.157Z,95.65
2022-10-17T00:44:20.232Z,100.15
2022-10-17T00:46:48.058Z,95.50
2022-10-17T00:49:15.986Z,106.10
2022-10-17T00:51:47.374Z,95.22
2022-10-17T00:54:17.713Z,86.13
2022-10-17T00:56:48.026Z,96.38
2022-10-17T00:59:18.130Z,84.22
2022-10-17T01:01:57.068Z,78.90
2022-10-17T01:04:32.018Z,89.40
2022-10-17T01:07:00.278Z,92.18
2022-10-17T01:09:52.817Z,93.20
2022-10-17T01:12:41.387Z,93.65
2022-10-17T01:15:46.381Z,78.72
2022-10-17T01:18:29.455Z,82.93
2022-10-17T01:21:13.938Z,92.85
2022-10-17T01:24:23.697Z,89.93
2022-10-17T01:27:29.673Z,84.70
2022-10-17T01:30:16.153Z,139.13
2022-10-17T01:33:04.809Z,113.10
2022-10-17T01:35:52.850Z,84.60
2022-10-17T01:38:23.708Z,90.32
2022-10-17T01:41:03.477Z,89.05
2022-10-17T01:46:31.737Z,81.30
2022-10-17T01:49:02.101Z,87.55
2022-10-17T01:51:43.507Z,93.40
2022-10-17T01:54:22.379Z,94.18
2022-10-17T01:56:58.012Z,85.47
2022-10-17T01:59:31.501Z,98.70
2022-10-17T02:02:01.067Z,95.93
2022-10-17T02:04:29.405Z,92.43
2022-10-17T02:06:57.203Z,94.97
2022-10-17T02:09:50.313Z,97.22
2022-10-17T02:18:53.282Z,91.50
2022-10-17T02:21:50.603Z,90.55
2022-10-17T02:24:34.265Z,103.88
2022-10-17T02:27:12.601Z,95.93
2022-10-17T02:29:50.622Z,96.70
2022-10-17T02:32:53.236Z,95.80
2022-10-17T02:35:26.212Z,89.95
2022-10-17T02:37:55.953Z,91.05
2022-10-17T02:40:25.199Z,91.95
2022-10-17T02:42:55.918Z,91.35
2022-10-17T02:45:28.096Z,96.03
2022-10-17T02:48:05.453Z,90.63
2022-10-17T02:51:03.689Z,93.35
2022-10-17T02:54:08.042Z,94.75
2022-10-17T02:56:51.580Z,91.32
2022-10-17T02:59:26.860Z,93.78
2022-10-17T03:01:58.033Z,90.22
2022-10-17T03:04:30.896Z,93.88
2022-10-17T03:06:58.879Z,95.53
2022-10-17T03:09:30.150Z,95.70
2022-10-17T03:12:01.447Z,86.18
2022-10-17T03:14:30.487Z,105.85
2022-10-17T03:17:22.818Z,110.88
2022-10-17T03:19:50.750Z,95.65
2022-10-17T03:22:18.378Z,90.60
2022-10-17T03:24:48.599Z,96.75
2022-10-17T03:27:17.462Z,94.10
2022-10-17T03:29:46.640Z,92.35
2022-10-17T03:32:16.283Z,94.88
2022-10-17T03:34:45.173Z,88.38
2022-10-17T03:37:13.688Z,89.75
2022-10-17T03:39:43.041Z,94.10
2022-10-17T03:42:15.553Z,87.13
2022-10-17T03:44:45.480Z,88.65
2022-10-17T03:47:17.120Z,92.05
2022-10-17T03:49:46.381Z,93.50
2022-10-17T03:52:16.131Z,102.97
2022-10-17T03:54:44.453Z,81.45
2022-10-17T03:57:12.413Z,93.75
2022-10-17T03:59:40.879Z,93.88
2022-10-17T04:03:03.649Z,96.10
2022-10-17T04:06:02.947Z,91.38
2022-10-17T04:08:34.504Z,85.55
2022-10-17T04:11:19.701Z,84.38
2022-10-17T04:14:38.644Z,97.18
2022-10-17T04:17:06.578Z,89.88
2022-10-17T04:19:38.854Z,88.15
2022-10-17T04:22:09.764Z,88.88
2022-10-17T04:24:40.086Z,85.53
2022-10-17T04:27:14.513Z,84.82
2022-10-17T04:32:26.219Z,86.28
2022-10-17T04:35:20.319Z,86.10
2022-10-17T04:37:52.963Z,79.35
2022-10-17T04:40:21.501Z,90.47
2022-10-17T04:42:51.854Z,86.88
2022-10-17T04:47:54.406Z,88.18
2022-10-17T04:50:23.715Z,99.63
2022-10-17T04:53:11.462Z,100.32
2022-10-17T04:55:39.755Z,97.78
2022-10-17T04:58:07.862Z,90.13
2022-10-17T05:00:36.630Z,90.40
2022-10-17T05:03:22.945Z,89.45
2022-10-17T05:05:50.898Z,94.45
2022-10-17T05:08:19.016Z,90.32
2022-10-17T05:10:47.099Z,95.55
2022-10-17T05:13:15.001Z,101.38
2022-10-17T05:15:43.083Z,93.43
2022-10-17T05:18:13.011Z,86.25
2022-10-17T05:20:42.977Z,91.57
2022-10-17T05:23:10.997Z,98.28
2022-10-17T05:25:46.569Z,109.53
2022-10-17T05:28:14.483Z,100.63
2022-10-17T05:30:50.756Z,94.00
2022-10-17T05:33:19.005Z,102.93
2022-10-17T05:35:46.858Z,206.75
2022-10-17T05:38:15.064Z,117.28
2022-10-17T05:43:15.063Z,109.97
2022-10-17T05:45:44.121Z,120.15
2022-10-17T05:48:18.186Z,156.45
2022-10-17T05:50:46.668Z,94.72
2022-10-17T05:56:00.541Z,98.07
2022-10-17T06:01:28.769Z,94.50
2022-10-17T06:03:58.697Z,91.05
2022-10-17T06:06:29.768Z,106.38
2022-10-17T06:11:31.620Z,97.35
2022-10-17T06:14:00.538Z,99.22
2022-10-17T06:16:55.386Z,94.53
2022-10-17T06:19:24.954Z,111.78
2022-10-17T06:21:53.215Z,105.43
2022-10-17T06:24:23.337Z,106.45
2022-10-17T06:26:53.478Z,100.47
2022-10-17T06:29:22.869Z,94.88
2022-10-17T06:31:54.329Z,102.93
2022-10-17T06:34:22.439Z,107.03
2022-10-17T06:36:50.525Z,100.38
2022-10-17T06:40:12.204Z,102.18
2022-10-17T06:42:41.926Z,98.53
2022-10-17T06:45:58.510Z,97.00
2022-10-17T06:48:39.439Z,100.93
2022-10-17T06:51:19.376Z,100.22
2022-10-17T06:53:55.095Z,99.70
2022-10-17T06:56:39.419Z,100.47
2022-10-17T06:59:22.869Z,106.82
2022-10-17T07:01:56.760Z,107.38
2022-10-17T07:04:26.335Z,101.40
2022-10-17T07:06:55.566Z,97.75
2022-10-17T07:09:28.004Z,101.40
2022-10-17T07:12:13.365Z,101.30
2022-10-17T07:14:47.564Z,108.85
2022-10-17T07:17:17.832Z,102.80
2022-10-17T07:19:46.419Z,99.82
2022-10-17T07:22:14.375Z,98.97
2022-10-17T07:24:46.312Z,102.45
2022-10-17T07:27:34.785Z,100.20
2022-10-17T07:30:04.053Z,101.60
2022-10-17T07:32:57.511Z,106.70
2022-10-17T07:35:25.632Z,104.00
2022-10-17T07:37:53.384Z,110.40
2022-10-17T07:40:22.775Z,102.63
2022-10-17T07:42:56.680Z,107.00
2022-10-17T07:45:27.882Z,111.15
2022-10-17T07:47:59.617Z,105.15
2022-10-17T07:50:27.447Z,107.68
2022-10-17T07:52:55.414Z,113.28
2022-10-17T07:55:28.258Z,109.07
2022-10-17T07:57:58.496Z,103.30
2022-10-17T08:00:27.302Z,101.00
2022-10-17T08:02:57.042Z,101.13
2022-10-17T08:05:24.802Z,110.70
2022-10-17T08:07:52.543Z,104.68
2022-10-17T08:10:45.558Z,100.38
2022-10-17T08:13:34.870Z,106.57
2022-10-17T08:16:21.002Z,104.22
2022-10-17T08:18:50.031Z,101.60
2022-10-17T08:21:18.219Z,109.47
2022-10-17T08:23:47.680Z,104.85
2022-10-17T08:26:17.513Z,122.60
2022-10-17T08:28:45.525Z,106.63
2022-10-17T08:31:19.022Z,116.97
2022-10-17T08:33:48.680Z,99.45
2022-10-17T08:36:19.301Z,103.78
2022-10-17T08:38:56.594Z,112.90
2022-10-17T08:42:05.530Z,103.18
2022-10-17T08:45:04.689Z,108.30
2022-10-17T08:47:40.175Z,100.95
2022-10-17T08:50:18.477Z,103.22
2022-10-17T08:52:57.474Z,101.88
2022-10-17T08:55:37.855Z,98.38
2022-10-17T08:58:19.662Z,104.53
2022-10-17T09:01:00.825Z,93.25
2022-10-17T09:06:21.011Z,90.10
2022-10-17T09:09:22.807Z,99.63
2022-10-17T09:15:13.436Z,104.68
2022-10-17T09:18:08.211Z,97.37
2022-10-17T09:24:09.575Z,97.00
2022-10-17T09:26:44.704Z,97.88
2022-10-17T09:29:52.292Z,100.60
2022-10-17T09:39:22.946Z,94.22
2022-10-17T09:42:24.186Z,92.88
2022-10-17T09:51:14.732Z,83.50
2022-10-17T09:54:22.634Z,80.88
2022-10-17T09:57:17.596Z,263.30
2022-10-17T09:59:59.618Z,83.65
2022-10-17T10:03:22.145Z,97.38
2022-10-17T10:06:18.993Z,105.65
2022-10-17T10:08:55.862Z,122.85
2022-10-17T10:11:54.167Z,87.35
2022-10-17T10:14:33.815Z,87.05
2022-10-17T10:17:24.563Z,80.57
2022-10-17T10:19:53.030Z,125.82
2022-10-17T10:22:26.129Z,90.82
2022-10-17T10:25:15.876Z,83.32
2022-10-17T10:27:45.461Z,78.05
2022-10-17T10:30:25.800Z,76.28
2022-10-17T10:32:56.973Z,71.65
2022-10-17T10:35:58.255Z,70.05
2022-10-17T10:38:26.154Z,77.20
2022-10-17T10:41:43.982Z,72.40
2022-10-17T10:44:15.899Z,68.00
2022-10-17T10:46:44.901Z,62.42
2022-10-17T10:49:30.852Z,68.57
2022-10-17T10:52:00.724Z,64.53
2022-10-17T10:54:40.253Z,81.85
2022-10-17T10:57:20.732Z,64.28
2022-10-17T11:00:04.363Z,60.35
2022-10-17T11:03:11.811Z,75.38
2022-10-17T11:05:51.358Z,72.10
2022-10-17T11:08:36.953Z,67.88
2022-10-17T11:11:18.581Z,67.13
2022-10-17T11:13:58.611Z,66.95
2022-10-17T11:16:49.463Z,64.82
2022-10-17T11:19:25.714Z,67.18
2022-10-17T11:22:15.892Z,56.15
2022-10-17T11:25:23.042Z,56.40
2022-10-17T11:27:51.842Z,58.30
2022-10-17T11:30:19.756Z,62.78
2022-10-17T11:32:57.367Z,65.00
2022-10-17T11:35:25.770Z,76.00
2022-10-17T11:38:21.059Z,70.05
2022-10-17T11:40:53.656Z,63.25
2022-10-17T11:43:33.918Z,71.38
2022-10-17T11:46:16.233Z,67.93
2022-10-17T11:52:26.968Z,66.80
2022-10-17T11:55:32.306Z,64.50
2022-10-17T11:58:19.008Z,71.38
2022-10-17T12:01:15.418Z,66.20
2022-10-17T12:04:16.136Z,82.63
2022-10-17T12:06:53.307Z,60.55
2022-10-17T12:09:46.231Z,60.08
2022-10-17T12:12:26.887Z,58.88
2022-10-17T12:17:33.046Z,68.55
2022-10-17T12:20:29.095Z,60.28
2022-10-17T12:23:11.110Z,62.75
2022-10-17T12:26:04.661Z,66.93
2022-10-17T12:28:44.669Z,59.50
2022-10-17T12:31:19.322Z,61.00
2022-10-17T12:33:46.997Z,65.53
2022-10-17T12:36:17.748Z,67.90
2022-10-17T12:38:49.920Z,60.33
2022-10-17T12:41:45.304Z,61.00
2022-10-17T12:44:16.684Z,60.88
2022-10-17T12:47:35.826Z,61.83
2022-10-17T12:50:04.473Z,63.95
2022-10-17T12:52:32.144Z,65.18
2022-10-17T12:55:12.565Z,64.60
2022-10-17T12:57:53.454Z,66.20
2022-10-17T13:00:36.221Z,66.73
2022-10-17T13:03:29.121Z,60.53
2022-10-17T13:06:03.790Z,68.88
2022-10-17T13:08:44.999Z,63.15
2022-10-17T13:11:14.694Z,67.82
2022-10-17T13:13:50.182Z,71.13
2022-10-17T13:16:39.233Z,68.05
2022-10-17T13:19:40.529Z,67.90
2022-10-17T13:22:17.359Z,60.97
2022-10-17T13:24:45.398Z,70.72
2022-10-17T13:27:27.711Z,61.22
2022-10-17T13:29:57.594Z,60.17
2022-10-17T13:32:28.027Z,67.70
2022-10-17T13:35:14.527Z,58.38
2022-10-17T13:37:45.054Z,68.35
2022-10-17T13:43:19.588Z,62.85
2022-10-17T13:45:54.632Z,66.68
2022-10-17T13:48:28.453Z,60.85
2022-10-17T13:51:03.430Z,61.33
2022-10-17T13:53:35.454Z,67.63
2022-10-17T13:59:43.184Z,54.08
2022-10-17T14:02:25.588Z,66.90
2022-10-17T14:05:25.663Z,66.35
2022-10-17T14:08:14.270Z,62.78
2022-10-17T14:13:27.069Z,61.15
2022-10-17T14:15:56.983Z,65.68
2022-10-17T14:18:33.262Z,58.80
2022-10-17T14:21:40.593Z,66.32
2022-10-17T14:24:35.861Z,58.92
2022-10-17T14:27:03.681Z,61.33
2022-10-17T14:29:50.190Z,62.95
2022-10-17T14:33:09.323Z,69.20
2022-10-17T14:35:41.952Z,66.30
2022-10-17T14:38:36.611Z,67.22
2022-10-17T14:41:47.049Z,65.03
2022-10-17T14:44:36.127Z,60.20
2022-10-17T14:47:41.865Z,71.32
2022-10-17T14:50:12.914Z,63.38
2022-10-17T14:52:42.131Z,67.15
2022-10-17T14:55:30.062Z,72.20
2022-10-17T14:57:58.515Z,71.00
2022-10-17T15:00:26.980Z,67.72
2022-10-17T15:02:56.352Z,73.70
2022-10-17T15:05:25.143Z,70.13
2022-10-17T15:07:54.625Z,63.13
2022-10-17T15:10:31.800Z,67.03
2022-10-17T15:13:16.386Z,64.78
2022-10-17T15:15:52.259Z,67.78
2022-10-17T15:18:20.171Z,72.43
2022-10-17T15:20:51.965Z,67.28
2022-10-17T15:23:33.516Z,69.32
2022-10-17T15:26:01.869Z,67.90
2022-10-17T15:28:29.720Z,65.07
2022-10-17T15:30:57.612Z,65.78
2022-10-17T15:33:25.429Z,77.55
2022-10-17T15:35:53.964Z,69.47
2022-10-17T15:38:21.678Z,66.45
2022-10-17T15:40:52.493Z,66.90
2022-10-17T15:43:21.251Z,73.00
2022-10-17T15:45:49.606Z,67.57
2022-10-17T15:48:30.780Z,66.53
2022-10-17T15:51:00.888Z,69.75
2022-10-17T15:53:30.724Z,73.63
2022-10-17T15:56:02.382Z,66.43
2022-10-17T15:58:37.433Z,72.32
2022-10-17T16:01:08.854Z,105.45
2022-10-17T16:03:38.387Z,91.93
2022-10-17T16:06:10.735Z,89.00
2022-10-17T16:08:45.227Z,75.10
2022-10-17T16:11:40.763Z,73.50
2022-10-17T16:14:42.490Z,74.35
2022-10-17T16:17:14.323Z,84.68
2022-10-17T16:19:43.444Z,194.55
2022-10-17T16:22:20.113Z,143.10
2022-10-17T16:24:49.561Z,98.35
2022-10-17T16:27:19.352Z,90.28
2022-10-17T16:29:48.496Z,97.10
2022-10-17T16:32:18.761Z,87.00
2022-10-17T16:34:48.571Z,87.72
2022-10-17T16:37:18.592Z,108.53
2022-10-17T16:39:54.210Z,98.90
2022-10-17T16:42:29.659Z,142.13
2022-10-17T16:44:59.384Z,102.22
2022-10-17T16:47:30.066Z,95.82
2022-10-17T16:50:01.837Z,81.85
2022-10-17T16:52:31.309Z,109.78
2022-10-17T16:55:05.049Z,108.30
2022-10-17T16:57:34.584Z,93.43
2022-10-17T17:00:08.155Z,96.25
2022-10-17T17:02:38.199Z,100.30
2022-10-17T17:05:09.272Z,157.05
2022-10-17T17:07:42.495Z,108.38
2022-10-17T17:10:11.972Z,100.32
2022-10-17T17:12:40.119Z,107.13
2022-10-17T17:15:09.813Z,101.90
2022-10-17T17:17:55.736Z,120.90
2022-10-17T17:20:26.389Z,110.72
2022-10-17T17:22:55.136Z,109.15
2022-10-17T17:25:23.394Z,175.38
2022-10-17T17:27:51.397Z,137.05
2022-10-17T17:30:19.746Z,126.53
2022-10-17T17:32:47.851Z,152.57
2022-10-17T17:35:16.823Z,103.28
2022-10-17T17:37:44.988Z,121.85
2022-10-17T17:40:17.468Z,106.22
2022-10-17T17:42:49.060Z,115.68
2022-10-17T17:45:20.563Z,107.75
2022-10-17T17:47:54.994Z,106.70
2022-10-17T17:50:26.820Z,99.93
2022-10-17T17:53:03.464Z,99.50
2022-10-17T17:55:34.519Z,115.05
2022-10-17T17:58:06.614Z,108.50
2022-10-17T18:00:39.905Z,104.13
2022-10-17T18:03:22.709Z,92.63
2022-10-17T18:05:58.693Z,107.32
2022-10-17T18:08:36.188Z,97.50
2022-10-17T18:11:10.046Z,106.20
2022-10-17T18:13:44.543Z,109.32
2022-10-17T18:16:20.913Z,102.35
2022-10-17T18:19:02.758Z,93.55
2022-10-17T18:21:41.798Z,110.60
2022-10-17T18:24:12.923Z,101.25
2022-10-17T18:27:22.593Z,107.95
2022-10-17T18:29:59.847Z,113.32
2022-10-17T18:32:34.680Z,103.82
2022-10-17T18:35:06.771Z,106.95
2022-10-17T18:37:37.504Z,107.95
2022-10-17T18:40:07.157Z,113.88
2022-10-17T18:42:35.349Z,146.55
2022-10-17T18:45:06.067Z,120.78
2022-10-17T18:47:41.269Z,111.10
2022-10-17T18:50:09.221Z,120.65
2022-10-17T18:52:37.185Z,104.88
2022-10-17T18:55:09.294Z,110.65
2022-10-17T18:57:38.318Z,100.05
2022-10-17T19:00:08.815Z,111.00
2022-10-17T19:02:39.047Z,116.60
2022-10-17T19:05:11.061Z,94.05
2022-10-17T19:07:40.731Z,105.10
2022-10-17T19:10:15.479Z,123.03
2022-10-17T19:12:46.212Z,167.98
2022-10-17T19:15:15.377Z,161.65
2022-10-17T19:17:47.208Z,145.05
2022-10-17T19:20:19.312Z,118.47
2022-10-17T19:22:49.199Z,114.05
2022-10-17T19:25:22.199Z,168.70
2022-10-17T19:27:54.556Z,131.60
2022-10-17T19:30:28.282Z,128.15
2022-10-17T19:33:00.290Z,122.93
2022-10-17T19:35:45.335Z,112.88
2022-10-17T19:38:42.847Z,117.03
2022-10-17T19:41:14.952Z,115.43
2022-10-17T19:43:47.923Z,113.20
2022-10-17T19:46:25.846Z,109.82
2022-10-17T19:49:01.026Z,112.00
2022-10-17T19:51:33.073Z,114.70
2022-10-17T19:54:05.851Z,107.85
2022-10-17T19:56:42.659Z,108.75
2022-10-17T19:59:21.300Z,125.70
2022-10-17T20:01:51.519Z,162.38
2022-10-17T20:04:25.966Z,151.07
2022-10-17T20:07:12.151Z,134.18
2022-10-17T20:09:48.782Z,125.97
2022-10-17T20:12:22.211Z,114.53
2022-10-17T20:14:58.793Z,112.40
2022-10-17T20:17:36.888Z,109.57
2022-10-17T20:20:08.877Z,110.65
2022-10-17T20:22:36.851Z,125.50
2022-10-17T20:25:05.756Z,131.90
2022-10-17T20:27:33.663Z,117.50
2022-10-17T20:30:02.574Z,124.78
2022-10-17T20:32:39.424Z,114.55
2022-10-17T20:35:08.100Z,121.25
2022-10-17T20:37:42.812Z,119.32
2022-10-17T20:40:33.599Z,119.40
2022-10-17T20:43:02.385Z,121.22
2022-10-17T20:45:43.902Z,127.20
2022-10-17T20:48:19.337Z,119.13
2022-10-17T20:50:47.430Z,110.05
2022-10-17T20:56:24.219Z,108.20
2022-10-17T20:59:01.613Z,111.03
2022-10-17T21:01:31.099Z,120.43
2022-10-17T21:04:06.093Z,113.82
2022-10-17T21:06:38.642Z,135.40
2022-10-17T21:09:07.219Z,110.72
2022-10-17T21:11:35.122Z,120.10
2022-10-17T21:14:05.474Z,144.80
2022-10-17T21:16:36.761Z,119.70
2022-10-17T21:19:05.737Z,110.50
2022-10-17T21:21:36.571Z,116.20
2022-10-17T21:24:07.251Z,112.22
2022-10-17T21:26:36.664Z,115.75
2022-10-17T21:29:06.113Z,118.10
2022-10-17T21:31:36.549Z,120.90
2022-10-17T21:34:13.783Z,119.35
2022-10-17T21:36:42.289Z,140.38
2022-10-17T21:39:11.663Z,111.22
2022-10-17T21:41:39.482Z,122.88
2022-10-17T21:44:12.876Z,120.47
2022-10-17T21:46:41.300Z,103.82
2022-10-17T21:49:10.988Z,111.78
2022-10-17T21:51:39.547Z,114.03
2022-10-17T21:54:07.667Z,112.93
2022-10-17T21:56:36.545Z,124.90
2022-10-17T21:59:05.265Z,116.85
2022-10-17T22:01:41.835Z,108.60
2022-10-17T22:04:16.064Z,108.00
2022-10-17T22:06:45.535Z,105.28
2022-10-17T22:09:20.055Z,114.15
2022-10-17T22:11:51.239Z,114.43
2022-10-17T22:14:23.649Z,110.80
2022-10-17T22:16:51.570Z,120.72
2022-10-17T22:19:22.989Z,112.55
2022-10-17T22:21:51.393Z,119.13
2022-10-17T22:26:54.064Z,122.75
2022-10-17T22:29:21.897Z,112.30
2022-10-17T22:31:49.789Z,117.60
2022-10-17T22:34:19.073Z,111.03
2022-10-17T22:36:49.066Z,107.82
2022-10-17T22:39:17.735Z,119.25
2022-10-17T22:41:45.567Z,111.13
2022-10-17T22:44:13.238Z,128.48
2022-10-17T22:46:41.101Z,126.55
2022-10-17T22:49:34.448Z,173.75
2022-10-17T22:52:02.259Z,115.03
2022-10-17T22:54:30.622Z,110.47
2022-10-17T22:56:58.338Z,125.90
2022-10-17T22:59:26.031Z,116.65
2022-10-17T23:01:54.031Z,132.27
2022-10-17T23:04:21.864Z,114.70
2022-10-17T23:06:50.687Z,120.57
2022-10-17T23:09:18.539Z,127.35
2022-10-17T23:11:46.508Z,117.30
2022-10-17T23:14:14.330Z,119.13
2022-10-17T23:16:42.179Z,105.85
2022-10-17T23:19:09.963Z,115.18
2022-10-17T23:21:37.713Z,118.65
2022-10-17T23:24:05.954Z,116.88
2022-10-17T23:26:33.750Z,110.78
2022-10-17T23:29:01.582Z,116.50
2022-10-17T23:34:06.870Z,113.60
2022-10-17T23:36:35.997Z,107.70
2022-10-17T23:39:03.954Z,105.43
2022-10-17T23:41:33.083Z,103.68
2022-10-17T23:44:26.419Z,110.70
2022-10-17T23:46:54.354Z,126.55
2022-10-17T23:49:23.741Z,165.32
2022-10-17T23:51:51.587Z,119.20
2022-10-17T23:54:20.823Z,109.00
2022-10-17T23:56:51.793Z,113.00
2022-10-17T23:59:20.692Z,120.95
